createdAt,value
2023-01-26T00:02:17.999Z,101033.90
2023-01-26T00:04:46.175Z,101037.97
2023-01-26T00:07:14.158Z,101037.88
2023-01-26T00:09:42.296Z,101039.75
2023-01-26T00:12:10.380Z,101030.67
2023-01-26T00:14:51.062Z,101028.05
2023-01-26T00:17:26.285Z,101023.96
2023-01-26T00:19:55.411Z,101021.54
2023-01-26T00:22:24.661Z,101018.90
2023-01-26T00:24:56.131Z,101013.05
2023-01-26T00:27:24.143Z,101013.35
2023-01-26T00:29:52.136Z,101011.08
2023-01-26T00:32:21.763Z,101006.58
2023-01-26T00:34:50.061Z,101012.98
2023-01-26T00:37:18.262Z,101008.49
2023-01-26T00:39:46.349Z,101004.55
2023-01-26T00:42:16.055Z,101001.79
2023-01-26T00:44:44.154Z,101003.52
2023-01-26T00:47:12.871Z,101001.21
2023-01-26T00:49:41.451Z,101001.70
2023-01-26T00:52:09.935Z,100998.59
2023-01-26T00:54:37.828Z,100999.34
2023-01-26T00:57:05.980Z,100990.81
2023-01-26T00:59:34.733Z,100990.31
2023-01-26T01:02:02.946Z,100990.25
2023-01-26T01:04:31.627Z,100987.45
2023-01-26T01:07:01.573Z,100984.37
2023-01-26T01:09:30.128Z,100986.70
2023-01-26T01:11:58.100Z,100984.98
2023-01-26T01:14:26.159Z,100981.62
2023-01-26T01:16:54.238Z,100977.41
2023-01-26T01:19:22.166Z,100973.10
2023-01-26T01:21:50.155Z,100977.13
2023-01-26T01:24:18.299Z,100974.07
2023-01-26T01:26:46.431Z,100963.39
2023-01-26T01:29:15.850Z,100955.07
2023-01-26T01:31:44.689Z,100952.15
2023-01-26T01:34:12.764Z,100955.05
2023-01-26T01:36:41.491Z,100952.77
2023-01-26T01:39:09.546Z,100945.91
2023-01-26T01:41:37.752Z,100946.56
2023-01-26T01:44:17.895Z,100942.51
2023-01-26T01:46:49.537Z,100941.30
2023-01-26T01:49:33.975Z,100940.64
2023-01-26T01:52:18.514Z,100936.63
2023-01-26T01:54:49.168Z,100927.75
2023-01-26T01:57:28.616Z,100926.27
2023-01-26T02:00:04.263Z,100923.11
2023-01-26T02:02:41.752Z,100920.45
2023-01-26T02:05:43.472Z,100915.70
2023-01-26T02:08:13.579Z,100916.05
2023-01-26T02:10:43.836Z,100915.45
2023-01-26T02:13:11.811Z,100912.25
2023-01-26T02:15:43.270Z,100908.89
2023-01-26T02:18:11.617Z,100900.34
2023-01-26T02:20:42.903Z,100901.92
2023-01-26T02:23:13.939Z,100905.34
2023-01-26T02:25:54.252Z,100899.70
2023-01-26T02:28:26.060Z,100891.05
2023-01-26T02:30:54.775Z,100889.44
2023-01-26T02:33:25.849Z,100884.54
2023-01-26T02:36:02.836Z,100887.61
2023-01-26T02:38:39.460Z,100884.77
2023-01-26T02:41:12.254Z,100875.69
2023-01-26T02:43:43.561Z,100875.59
2023-01-26T02:46:11.599Z,100871.11
2023-01-26T02:48:58.706Z,100870.23
2023-01-26T02:51:26.794Z,100863.66
2023-01-26T02:53:54.998Z,100857.84
2023-01-26T02:56:27.366Z,100861.41
2023-01-26T02:58:56.256Z,100858.29
2023-01-26T03:01:24.429Z,100855.79
2023-01-26T03:03:52.406Z,100854.77
2023-01-26T03:06:21.275Z,100855.00
2023-01-26T03:08:49.356Z,100849.70
2023-01-26T03:11:17.647Z,100848.95
2023-01-26T03:13:45.818Z,100846.67
2023-01-26T03:16:18.579Z,100847.65
2023-01-26T03:19:04.949Z,100849.48
2023-01-26T03:21:52.221Z,100844.69
2023-01-26T03:24:38.997Z,100841.56
2023-01-26T03:27:28.214Z,100843.98
2023-01-26T03:29:59.548Z,100843.09
2023-01-26T03:32:31.052Z,100839.27
2023-01-26T03:34:59.917Z,100838.67
2023-01-26T03:37:27.960Z,100836.06
2023-01-26T03:40:20.503Z,100840.07
2023-01-26T03:43:07.537Z,100832.79
2023-01-26T03:45:55.030Z,100824.73
2023-01-26T03:48:42.981Z,100821.09
2023-01-26T03:51:30.307Z,100817.30
2023-01-26T03:54:18.099Z,100822.84
2023-01-26T03:56:46.238Z,100829.95
2023-01-26T03:59:16.941Z,100835.33
2023-01-26T04:02:05.173Z,100836.10
2023-01-26T04:04:54.472Z,100840.23
2023-01-26T04:07:46.491Z,100847.31
2023-01-26T04:10:15.402Z,100848.66
2023-01-26T04:12:51.061Z,100848.27
2023-01-26T04:15:39.163Z,100846.93
2023-01-26T04:18:26.848Z,100849.73
2023-01-26T04:21:15.171Z,100856.20
2023-01-26T04:23:45.026Z,100852.90
2023-01-26T04:26:13.557Z,100852.04
2023-01-26T04:28:42.061Z,100850.61
2023-01-26T04:31:10.209Z,100850.50
2023-01-26T04:33:39.213Z,100846.88
2023-01-26T04:36:08.262Z,100850.17
2023-01-26T04:38:38.833Z,100849.90
2023-01-26T04:41:07.711Z,100852.73
2023-01-26T04:43:42.568Z,100846.10
2023-01-26T04:46:11.441Z,100844.31
2023-01-26T04:48:40.845Z,100848.30
2023-01-26T04:51:13.669Z,100845.35
2023-01-26T04:53:41.903Z,100849.83
2023-01-26T04:56:22.806Z,100848.25
2023-01-26T04:58:52.534Z,100842.11
2023-01-26T05:01:20.722Z,100832.09
2023-01-26T05:03:49.047Z,100833.63
2023-01-26T07:23:34.975Z,100833.05
2023-01-26T07:26:03.674Z,100832.17
2023-01-26T07:28:31.621Z,100831.08
2023-01-26T07:31:00.467Z,100834.80
2023-01-26T07:33:29.177Z,100833.77
2023-01-26T07:35:57.521Z,100833.48
2023-01-26T07:38:26.271Z,100826.24
2023-01-26T07:40:54.342Z,100829.23
2023-01-26T07:43:22.177Z,100827.95
2023-01-26T07:45:53.378Z,100823.44
2023-01-26T07:48:23.238Z,100822.36
2023-01-26T07:50:51.219Z,100820.19
2023-01-26T07:53:19.562Z,100815.20
2023-01-26T07:55:47.765Z,100820.54
2023-01-26T07:58:15.792Z,100820.84
2023-01-26T08:03:58.772Z,100820.66
2023-01-26T08:06:26.791Z,100822.83
2023-01-26T08:08:55.067Z,100821.81
2023-01-26T11:03:42.018Z,100695.02
2023-01-26T11:19:12.345Z,100684.15
2023-01-26T11:21:55.759Z,100677.35
2023-01-26T11:24:29.230Z,100677.21
2023-01-26T11:27:34.491Z,100668.39
2023-01-26T11:30:27.534Z,100678.34
2023-01-26T11:33:26.622Z,100668.77
2023-01-26T11:36:01.369Z,100661.48
2023-01-26T11:38:35.728Z,100661.74
2023-01-26T11:41:22.397Z,100658.71
2023-01-26T11:44:15.183Z,100654.54
2023-01-26T11:46:56.155Z,100650.84
2023-01-26T11:49:48.075Z,100653.73
2023-01-26T11:52:29.679Z,100654.20
2023-01-26T11:55:03.577Z,100655.53
2023-01-26T11:57:43.135Z,100654.11
2023-01-26T12:00:29.403Z,100647.61
2023-01-26T12:03:02.132Z,100643.42
2023-01-26T12:05:35.524Z,100644.99
2023-01-26T12:08:05.297Z,100643.20
2023-01-26T12:10:36.752Z,100643.24
2023-01-26T12:13:06.702Z,100630.85
2023-01-26T12:15:37.498Z,100635.42
2023-01-26T12:18:09.265Z,100627.84
2023-01-26T12:21:22.784Z,100627.91
2023-01-26T12:23:58.540Z,100621.20
2023-01-26T12:26:26.507Z,100621.37
2023-01-26T12:29:09.303Z,100621.52
2023-01-26T12:32:08.495Z,100628.07
2023-01-26T12:34:36.541Z,100624.78
2023-01-26T12:37:31.210Z,100625.79
2023-01-26T12:40:33.486Z,100623.71
2023-01-26T12:43:32.745Z,100621.05
2023-01-26T12:46:01.162Z,100620.19
2023-01-26T12:48:36.018Z,100612.77
2023-01-26T12:51:11.438Z,100612.03
2023-01-26T12:53:44.212Z,100614.39
2023-01-26T12:56:41.056Z,100616.61
2023-01-26T12:59:47.055Z,100626.42
2023-01-26T13:02:25.288Z,100628.82
2023-01-26T13:04:53.210Z,100634.81
2023-01-26T13:07:32.206Z,100619.88
2023-01-26T13:10:16.234Z,100623.88
2023-01-26T13:13:01.849Z,100613.38
2023-01-26T13:15:31.472Z,100610.38
2023-01-26T13:18:01.242Z,100609.02
2023-01-26T13:20:43.302Z,100613.67
2023-01-26T13:23:37.245Z,100621.94
2023-01-26T13:26:24.061Z,100616.39
2023-01-26T13:28:52.522Z,100611.91
2023-01-26T13:31:32.251Z,100612.44
2023-01-26T13:34:02.596Z,100606.50
2023-01-26T13:36:35.200Z,100599.30
2023-01-26T13:39:13.171Z,100606.09
2023-01-26T13:41:47.544Z,100614.30
2023-01-26T13:44:18.762Z,100614.61
2023-01-26T13:47:20.932Z,100612.34
2023-01-26T13:49:50.739Z,100609.91
2023-01-26T13:52:23.221Z,100618.06
2023-01-26T13:54:53.076Z,100614.48
2023-01-26T13:57:29.100Z,100606.91
2023-01-26T14:00:01.752Z,100607.19
2023-01-26T14:02:38.993Z,100616.11
2023-01-26T14:05:08.606Z,100613.35
2023-01-26T14:07:43.672Z,100609.52
2023-01-26T14:10:17.022Z,100602.61
2023-01-26T14:12:55.938Z,100600.08
2023-01-26T14:15:29.306Z,100601.49
2023-01-26T14:18:02.494Z,100608.02
2023-01-26T14:20:32.092Z,100597.41
2023-01-26T14:23:18.887Z,100592.98
2023-01-26T14:26:18.933Z,100592.64
2023-01-26T14:28:47.210Z,100591.84
2023-01-26T14:31:25.501Z,100588.50
2023-01-26T14:33:57.724Z,100589.76
2023-01-26T14:36:28.530Z,100589.24
2023-01-26T14:38:56.713Z,100585.77
2023-01-26T14:41:30.012Z,100582.35
2023-01-26T14:44:01.902Z,100582.49
2023-01-26T14:46:54.798Z,100576.92
2023-01-26T14:49:54.523Z,100574.59
2023-01-26T14:52:25.137Z,100579.77
2023-01-26T14:54:58.054Z,100575.70
2023-01-26T14:57:27.350Z,100574.55
2023-01-26T14:59:57.766Z,100572.93
2023-01-26T15:02:42.527Z,100572.46
2023-01-26T15:05:13.398Z,100567.92
2023-01-26T15:07:43.271Z,100562.52
2023-01-26T15:10:30.400Z,100569.21
2023-01-26T15:13:11.368Z,100567.42
2023-01-26T15:16:01.184Z,100570.00
2023-01-26T15:18:33.321Z,100564.34
2023-01-26T15:21:20.737Z,100557.52
2023-01-26T15:23:52.400Z,100560.20
2023-01-26T15:26:26.836Z,100559.42
2023-01-26T15:28:56.091Z,100553.89
2023-01-26T15:31:35.179Z,100561.87
2023-01-26T15:34:05.092Z,100572.67
2023-01-26T15:36:50.068Z,100575.73
2023-01-26T15:39:21.399Z,100570.47
2023-01-26T15:42:15.569Z,100568.92
2023-01-26T15:44:43.648Z,100577.15
2023-01-26T15:47:13.602Z,100583.89
2023-01-26T15:49:42.942Z,100576.02
2023-01-26T15:52:21.769Z,100573.96
2023-01-26T15:54:51.935Z,100577.59
2023-01-26T15:57:19.981Z,100577.30
2023-01-26T15:59:48.452Z,100576.38
2023-01-26T16:02:19.307Z,100581.84
2023-01-26T16:04:47.470Z,100577.14
2023-01-26T16:07:17.205Z,100568.48
2023-01-26T16:09:45.656Z,100572.45
2023-01-26T16:12:33.254Z,100573.85
2023-01-26T16:15:02.693Z,100573.73
2023-01-26T16:17:31.269Z,100572.48
2023-01-26T16:20:00.466Z,100572.88
2023-01-26T16:22:28.744Z,100570.44
2023-01-26T16:24:56.688Z,100573.86
2023-01-26T16:27:25.044Z,100574.97
2023-01-26T16:29:53.573Z,100572.55
2023-01-26T16:32:28.436Z,100567.02
2023-01-26T16:34:56.483Z,100564.92
2023-01-26T16:37:24.758Z,100567.33
2023-01-26T16:39:52.828Z,100573.13
2023-01-26T16:42:22.361Z,100573.83
2023-01-26T16:44:50.723Z,100574.47
2023-01-26T16:47:18.860Z,100568.88
2023-01-26T16:49:50.328Z,100568.46
2023-01-26T16:52:18.391Z,100565.35
2023-01-26T16:54:48.414Z,100567.27
2023-01-26T16:57:17.150Z,100569.04
2023-01-26T16:59:45.353Z,100582.98
2023-01-26T17:02:24.152Z,100587.48
2023-01-26T17:04:52.288Z,100579.55
2023-01-26T17:07:20.435Z,100580.03
2023-01-26T17:09:48.417Z,100573.30
2023-01-26T17:12:16.576Z,100575.15
2023-01-26T17:14:44.571Z,100574.44
2023-01-26T17:17:13.029Z,100573.58
2023-01-26T17:19:41.096Z,100575.40
2023-01-26T17:22:09.286Z,100573.86
2023-01-26T17:24:37.235Z,100574.34
2023-01-26T17:27:05.659Z,100572.34
2023-01-26T17:29:34.061Z,100568.48
2023-01-26T17:32:02.628Z,100573.92
2023-01-26T17:34:30.779Z,100578.64
2023-01-26T17:37:00.259Z,100576.66
2023-01-26T17:39:28.337Z,100574.81
2023-01-26T17:41:56.654Z,100577.31
2023-01-26T17:44:24.882Z,100573.33
2023-01-26T17:46:53.581Z,100575.56
2023-01-26T17:49:22.416Z,100572.92
2023-01-26T17:51:50.845Z,100574.23
2023-01-26T17:54:19.329Z,100575.66
2023-01-26T17:56:47.396Z,100578.56
2023-01-26T17:59:15.569Z,100573.55
2023-01-26T18:01:43.644Z,100568.59
2023-01-26T18:04:11.620Z,100572.98
2023-01-26T18:06:39.627Z,100572.79
2023-01-26T18:09:08.201Z,100571.67
2023-01-26T18:11:36.293Z,100565.80
2023-01-26T18:14:04.658Z,100571.62
2023-01-26T18:16:33.829Z,100569.94
2023-01-26T18:19:04.637Z,100572.14
2023-01-26T18:21:36.095Z,100565.84
2023-01-26T18:24:05.415Z,100560.92
2023-01-26T18:26:35.763Z,100562.00
2023-01-26T18:29:04.924Z,100567.23
2023-01-26T18:31:37.710Z,100570.67
2023-01-26T18:34:06.201Z,100569.58
2023-01-26T18:36:34.785Z,100562.73
2023-01-26T18:39:05.654Z,100557.37
2023-01-26T18:41:35.975Z,100558.27
2023-01-26T18:44:04.307Z,100563.89
2023-01-26T18:46:32.309Z,100559.75
2023-01-26T18:49:01.485Z,100561.08
2023-01-26T18:51:34.898Z,100560.98
2023-01-26T18:54:04.476Z,100558.94
2023-01-26T18:56:33.905Z,100551.83
2023-01-26T18:59:02.166Z,100559.12
2023-01-26T19:01:31.082Z,100553.45
2023-01-26T19:04:02.289Z,100555.50
2023-01-26T19:06:32.720Z,100554.14
2023-01-26T19:09:05.772Z,100553.97
2023-01-26T19:11:37.716Z,100552.26
2023-01-26T19:14:07.271Z,100553.08
2023-01-26T19:16:36.625Z,100552.22
2023-01-26T19:19:05.414Z,100550.23
2023-01-26T19:21:34.095Z,100544.33
2023-01-26T19:24:06.513Z,100546.65
2023-01-26T19:26:35.006Z,100557.06
2023-01-26T19:29:04.116Z,100553.20
2023-01-26T19:31:32.960Z,100551.13
2023-01-26T19:34:02.794Z,100548.43
2023-01-26T19:36:32.241Z,100545.55
2023-01-26T19:39:01.609Z,100545.14
2023-01-26T19:41:29.995Z,100548.23
2023-01-26T19:43:58.076Z,100547.25
2023-01-26T19:46:26.880Z,100546.02
2023-01-26T19:48:55.147Z,100545.90
2023-01-26T19:51:25.148Z,100549.33
2023-01-26T19:53:58.241Z,100548.94
2023-01-26T19:56:30.827Z,100548.25
2023-01-26T19:59:00.578Z,100539.89
2023-01-26T20:01:33.225Z,100536.73
2023-01-26T20:04:03.724Z,100538.20
2023-01-26T20:06:33.393Z,100529.54
2023-01-26T20:09:03.601Z,100528.17
2023-01-26T20:11:32.238Z,100524.56
2023-01-26T20:14:06.296Z,100518.87
2023-01-26T20:16:35.405Z,100516.19
2023-01-26T20:19:05.472Z,100512.14
2023-01-26T20:21:34.354Z,100511.59
2023-01-26T20:24:06.033Z,100509.88
2023-01-26T20:26:35.580Z,100516.57
2023-01-26T20:29:04.830Z,100517.54
2023-01-26T20:31:33.719Z,100511.70
2023-01-26T20:34:02.673Z,100514.35
2023-01-26T20:36:32.004Z,100515.41
2023-01-26T20:39:00.580Z,100519.17
2023-01-26T20:41:32.454Z,100519.00
2023-01-26T20:44:02.958Z,100515.69
2023-01-26T20:46:39.204Z,100516.73
2023-01-26T20:49:08.821Z,100515.15
2023-01-26T20:51:38.364Z,100516.84
2023-01-26T20:54:07.849Z,100512.12
2023-01-26T20:56:36.645Z,100514.12
2023-01-26T20:59:07.573Z,100515.36
2023-01-26T21:01:36.686Z,100517.70
2023-01-26T21:04:05.295Z,100515.38
2023-01-26T21:06:33.983Z,100515.10
2023-01-26T21:09:02.291Z,100518.26
2023-01-26T21:11:31.636Z,100515.23
2023-01-26T21:14:03.101Z,100512.80
2023-01-26T21:16:32.232Z,100507.81
2023-01-26T21:19:00.224Z,100507.71
2023-01-26T21:21:28.631Z,100502.27
2023-01-26T21:23:56.820Z,100498.06
2023-01-26T21:26:25.724Z,100496.16
2023-01-26T21:28:55.962Z,100489.60
2023-01-26T21:31:27.613Z,100493.68
2023-01-26T21:33:55.733Z,100487.70
2023-01-26T21:36:25.655Z,100489.41
2023-01-26T21:38:57.000Z,100482.06
2023-01-26T21:41:46.391Z,100482.95
2023-01-26T21:44:16.317Z,100485.83
2023-01-26T21:46:45.533Z,100485.02
2023-01-26T21:49:13.773Z,100480.71
2023-01-26T21:52:03.266Z,100482.77
2023-01-26T21:54:31.929Z,100478.69
2023-01-26T21:57:00.721Z,100476.89
2023-01-26T21:59:32.362Z,100479.24
2023-01-26T22:02:00.948Z,100479.40
2023-01-26T22:04:30.558Z,100480.98
2023-01-26T22:06:59.846Z,100479.11
2023-01-26T22:09:28.473Z,100479.29
2023-01-26T22:11:56.884Z,100480.01
2023-01-26T22:14:26.432Z,100475.16
2023-01-26T22:16:55.291Z,100479.41
2023-01-26T22:19:23.388Z,100478.11
2023-01-26T22:21:51.625Z,100482.05
2023-01-26T22:24:20.104Z,100477.00
2023-01-26T22:26:49.041Z,100477.23
2023-01-26T22:29:17.041Z,100469.27
2023-01-26T22:31:45.943Z,100468.42
2023-01-26T22:34:14.388Z,100465.70
2023-01-26T22:36:43.041Z,100464.47
2023-01-26T22:39:12.474Z,100459.05
2023-01-26T22:41:41.113Z,100458.40
2023-01-26T22:44:09.490Z,100456.10
2023-01-26T22:46:37.699Z,100453.42
2023-01-26T22:49:06.281Z,100452.93
2023-01-26T22:51:37.613Z,100449.65
2023-01-26T22:54:06.045Z,100448.33
2023-01-26T22:56:35.304Z,100445.35
2023-01-26T22:59:03.610Z,100444.69
2023-01-26T23:01:34.051Z,100448.57
2023-01-26T23:04:02.900Z,100444.23
2023-01-26T23:06:31.276Z,100441.88
2023-01-26T23:09:01.301Z,100445.90
2023-01-26T23:11:30.698Z,100446.60
2023-01-26T23:13:58.956Z,100452.59
2023-01-26T23:16:27.435Z,100443.15
2023-01-26T23:18:57.200Z,100443.36
2023-01-26T23:21:26.789Z,100443.02
2023-01-26T23:26:48.100Z,100435.90
2023-01-26T23:29:16.341Z,100439.30
2023-01-26T23:31:45.180Z,100440.82
2023-01-26T23:34:13.280Z,100435.54
2023-01-26T23:36:41.446Z,100432.83
2023-01-26T23:39:09.702Z,100433.21
2023-01-26T23:41:37.860Z,100434.48
2023-01-26T23:44:05.900Z,100431.12
2023-01-26T23:46:36.250Z,100434.92
2023-01-26T23:49:04.283Z,100431.35
2023-01-26T23:51:32.668Z,100433.50
2023-01-26T23:54:00.917Z,100429.16
2023-01-26T23:56:29.642Z,100428.27
2023-01-26T23:58:57.974Z,100428.95
